sensor_id;sensor_type;location;lat;lon;timestamp;temperature;humidity
3300;DHT22;1662;49.310;8.134;2023-01-08T00:00:45;8.70;99.90
3300;DHT22;1662;49.310;8.134;2023-01-08T00:03:12;8.60;99.90
3300;DHT22;1662;49.310;8.134;2023-01-08T00:05:40;8.60;99.90
3300;DHT22;1662;49.310;8.134;2023-01-08T00:08:06;8.60;99.90
3300;DHT22;1662;49.310;8.134;2023-01-08T00:11:22;8.60;99.90
3300;DHT22;1662;49.310;8.134;2023-01-08T00:13:47;8.70;99.90
3300;DHT22;1662;49.310;8.134;2023-01-08T00:16:18;8.70;99.90
3300;DHT22;1662;49.310;8.134;2023-01-08T00:18:45;8.60;99.90
3300;DHT22;1662;49.310;8.134;2023-01-08T00:21:11;8.60;99.90
3300;DHT22;1662;49.310;8.134;2023-01-08T00:23:37;8.50;99.90
3300;DHT22;1662;49.310;8.134;2023-01-08T00:26:05;8.50;99.90
3300;DHT22;1662;49.310;8.134;2023-01-08T00:31:05;8.50;99.90
3300;DHT22;1662;49.310;8.134;2023-01-08T00:33:30;8.60;99.90
3300;DHT22;1662;49.310;8.134;2023-01-08T00:35:56;8.60;99.90
3300;DHT22;1662;49.310;8.134;2023-01-08T00:38:26;8.70;99.90
3300;DHT22;1662;49.310;8.134;2023-01-08T00:40:52;8.80;99.90
3300;DHT22;1662;49.310;8.134;2023-01-08T00:43:17;8.80;99.90
3300;DHT22;1662;49.310;8.134;2023-01-08T00:48:41;8.90;99.90
3300;DHT22;1662;49.310;8.134;2023-01-08T00:51:08;8.90;99.90
3300;DHT22;1662;49.310;8.134;2023-01-08T00:53:33;8.80;99.90
3300;DHT22;1662;49.310;8.134;2023-01-08T00:56:05;8.90;99.90
3300;DHT22;1662;49.310;8.134;2023-01-08T00:58:31;9.00;99.90
3300;DHT22;1662;49.310;8.134;2023-01-08T01:00:57;9.00;99.90
3300;DHT22;1662;49.310;8.134;2023-01-08T01:03:23;9.10;99.90
3300;DHT22;1662;49.310;8.134;2023-01-08T01:07:38;9.00;99.90
3300;DHT22;1662;49.310;8.134;2023-01-08T01:10:04;9.00;99.90
3300;DHT22;1662;49.310;8.134;2023-01-08T01:12:29;8.90;99.90
3300;DHT22;1662;49.310;8.134;2023-01-08T01:14:57;9.00;99.90
3300;DHT22;1662;49.310;8.134;2023-01-08T01:17:23;9.00;99.90
3300;DHT22;1662;49.310;8.134;2023-01-08T01:19:48;9.00;99.90
3300;DHT22;1662;49.310;8.134;2023-01-08T01:22:14;8.90;99.90
3300;DHT22;1662;49.310;8.134;2023-01-08T01:27:07;8.90;99.90
3300;DHT22;1662;49.310;8.134;2023-01-08T01:29:35;8.90;99.90
3300;DHT22;1662;49.310;8.134;2023-01-08T01:32:00;8.80;99.90
3300;DHT22;1662;49.310;8.134;2023-01-08T01:34:26;8.80;99.90
3300;DHT22;1662;49.310;8.134;2023-01-08T01:36:52;8.80;99.90
3300;DHT22;1662;49.310;8.134;2023-01-08T01:39:17;8.80;99.90
3300;DHT22;1662;49.310;8.134;2023-01-08T01:44:44;8.60;99.90
3300;DHT22;1662;49.310;8.134;2023-01-08T01:47:39;8.60;99.90
3300;DHT22;1662;49.310;8.134;2023-01-08T01:50:27;8.60;99.90
3300;DHT22;1662;49.310;8.134;2023-01-08T01:55:34;8.50;99.90
3300;DHT22;1662;49.310;8.134;2023-01-08T01:58:12;8.50;99.90
3300;DHT22;1662;49.310;8.134;2023-01-08T02:02:54;8.50;99.90
3300;DHT22;1662;49.310;8.134;2023-01-08T02:05:20;8.50;99.90
3300;DHT22;1662;49.310;8.134;2023-01-08T02:07:52;8.50;99.90
3300;DHT22;1662;49.310;8.134;2023-01-08T02:10:28;8.50;99.90
3300;DHT22;1662;49.310;8.134;2023-01-08T02:13:00;8.50;99.90
3300;DHT22;1662;49.310;8.134;2023-01-08T02:15:37;8.50;99.90
3300;DHT22;1662;49.310;8.134;2023-01-08T02:18:19;8.50;99.90
3300;DHT22;1662;49.310;8.134;2023-01-08T02:28:01;8.50;99.90
3300;DHT22;1662;49.310;8.134;2023-01-08T02:30:29;8.50;99.90
3300;DHT22;1662;49.310;8.134;2023-01-08T02:32:57;8.50;99.90
3300;DHT22;1662;49.310;8.134;2023-01-08T02:35:23;8.50;99.90
3300;DHT22;1662;49.310;8.134;2023-01-08T02:37:51;8.50;99.90
3300;DHT22;1662;49.310;8.134;2023-01-08T02:41:16;8.50;99.90
3300;DHT22;1662;49.310;8.134;2023-01-08T02:43:48;8.50;99.90
3300;DHT22;1662;49.310;8.134;2023-01-08T02:46:18;8.60;99.90
3300;DHT22;1662;49.310;8.134;2023-01-08T02:48:48;8.60;99.90
3300;DHT22;1662;49.310;8.134;2023-01-08T02:53:50;8.60;99.90
3300;DHT22;1662;49.310;8.134;2023-01-08T02:58:43;8.60;99.90
3300;DHT22;1662;49.310;8.134;2023-01-08T03:01:12;8.60;99.90
3300;DHT22;1662;49.310;8.134;2023-01-08T03:03:41;8.60;99.90
3300;DHT22;1662;49.310;8.134;2023-01-08T03:06:11;8.60;99.90
3300;DHT22;1662;49.310;8.134;2023-01-08T03:08:39;8.50;99.90
3300;DHT22;1662;49.310;8.134;2023-01-08T03:11:12;8.50;99.90
3300;DHT22;1662;49.310;8.134;2023-01-08T03:18:15;8.50;99.90
3300;DHT22;1662;49.310;8.134;2023-01-08T03:20:44;8.50;99.90
3300;DHT22;1662;49.310;8.134;2023-01-08T03:23:11;8.50;99.90
3300;DHT22;1662;49.310;8.134;2023-01-08T03:25:41;8.40;99.90
3300;DHT22;1662;49.310;8.134;2023-01-08T03:28:38;8.40;99.90
3300;DHT22;1662;49.310;8.134;2023-01-08T03:33:52;8.40;99.90
3300;DHT22;1662;49.310;8.134;2023-01-08T03:36:24;8.40;99.90
3300;DHT22;1662;49.310;8.134;2023-01-08T03:38:59;8.40;99.90
3300;DHT22;1662;49.310;8.134;2023-01-08T03:41:28;8.40;99.90
3300;DHT22;1662;49.310;8.134;2023-01-08T03:43:58;8.40;99.90
3300;DHT22;1662;49.310;8.134;2023-01-08T03:46:36;8.40;99.90
3300;DHT22;1662;49.310;8.134;2023-01-08T03:49:04;8.40;99.90
3300;DHT22;1662;49.310;8.134;2023-01-08T03:51:41;8.40;99.90
3300;DHT22;1662;49.310;8.134;2023-01-08T03:54:12;8.40;99.90
3300;DHT22;1662;49.310;8.134;2023-01-08T03:56:38;8.40;99.90
3300;DHT22;1662;49.310;8.134;2023-01-08T03:59:03;8.40;99.90
3300;DHT22;1662;49.310;8.134;2023-01-08T04:01:29;8.40;99.90
3300;DHT22;1662;49.310;8.134;2023-01-08T04:03:55;8.50;99.90
3300;DHT22;1662;49.310;8.134;2023-01-08T04:06:20;8.50;99.90
3300;DHT22;1662;49.310;8.134;2023-01-08T04:08:47;8.50;99.90
3300;DHT22;1662;49.310;8.134;2023-01-08T04:11:13;8.40;99.90
3300;DHT22;1662;49.310;8.134;2023-01-08T04:13:38;8.40;99.90
3300;DHT22;1662;49.310;8.134;2023-01-08T04:16:07;8.40;99.90
3300;DHT22;1662;49.310;8.134;2023-01-08T04:18:35;8.40;99.90
3300;DHT22;1662;49.310;8.134;2023-01-08T04:21:00;8.40;99.90
3300;DHT22;1662;49.310;8.134;2023-01-08T04:23:26;8.40;99.90
3300;DHT22;1662;49.310;8.134;2023-01-08T04:25:52;8.40;99.90
3300;DHT22;1662;49.310;8.134;2023-01-08T04:28:18;8.40;99.90
3300;DHT22;1662;49.310;8.134;2023-01-08T04:30:44;8.50;99.90
3300;DHT22;1662;49.310;8.134;2023-01-08T04:33:09;8.50;99.90
3300;DHT22;1662;49.310;8.134;2023-01-08T04:35:35;8.50;99.90
3300;DHT22;1662;49.310;8.134;2023-01-08T04:38:01;8.60;99.90
3300;DHT22;1662;49.310;8.134;2023-01-08T04:40:26;8.70;99.90
3300;DHT22;1662;49.310;8.134;2023-01-08T04:42:52;8.80;99.90
3300;DHT22;1662;49.310;8.134;2023-01-08T04:45:18;8.90;99.90
3300;DHT22;1662;49.310;8.134;2023-01-08T04:47:43;9.00;99.90
3300;DHT22;1662;49.310;8.134;2023-01-08T04:50:11;9.10;99.90
3300;DHT22;1662;49.310;8.134;2023-01-08T04:52:37;9.20;99.90
3300;DHT22;1662;49.310;8.134;2023-01-08T04:55:03;9.10;99.90
3300;DHT22;1662;49.310;8.134;2023-01-08T04:57:29;9.20;99.90
3300;DHT22;1662;49.310;8.134;2023-01-08T04:59:54;9.20;99.90
3300;DHT22;1662;49.310;8.134;2023-01-08T05:02:24;9.20;99.90
3300;DHT22;1662;49.310;8.134;2023-01-08T05:04:50;9.20;99.90
3300;DHT22;1662;49.310;8.134;2023-01-08T05:07:15;9.30;99.90
3300;DHT22;1662;49.310;8.134;2023-01-08T05:09:41;9.20;99.90
3300;DHT22;1662;49.310;8.134;2023-01-08T05:12:09;9.30;99.90
3300;DHT22;1662;49.310;8.134;2023-01-08T05:14:35;9.30;99.90
3300;DHT22;1662;49.310;8.134;2023-01-08T05:17:00;9.30;99.90
3300;DHT22;1662;49.310;8.134;2023-01-08T05:19:26;9.30;99.90
3300;DHT22;1662;49.310;8.134;2023-01-08T05:21:51;9.30;99.90
3300;DHT22;1662;49.310;8.134;2023-01-08T05:24:17;9.30;99.90
3300;DHT22;1662;49.310;8.134;2023-01-08T05:26:45;9.30;99.90
3300;DHT22;1662;49.310;8.134;2023-01-08T05:29:10;9.20;99.90
3300;DHT22;1662;49.310;8.134;2023-01-08T05:31:36;9.10;99.90
3300;DHT22;1662;49.310;8.134;2023-01-08T05:34:04;9.10;99.90
3300;DHT22;1662;49.310;8.134;2023-01-08T05:36:30;9.00;99.90
3300;DHT22;1662;49.310;8.134;2023-01-08T05:38:55;8.90;99.90
3300;DHT22;1662;49.310;8.134;2023-01-08T05:41:21;8.90;99.90
3300;DHT22;1662;49.310;8.134;2023-01-08T05:43:46;8.80;99.90
3300;DHT22;1662;49.310;8.134;2023-01-08T05:46:12;8.80;99.90
3300;DHT22;1662;49.310;8.134;2023-01-08T05:48:40;8.70;99.90
3300;DHT22;1662;49.310;8.134;2023-01-08T05:51:05;8.70;99.90
3300;DHT22;1662;49.310;8.134;2023-01-08T05:53:31;8.70;99.90
3300;DHT22;1662;49.310;8.134;2023-01-08T05:58:06;8.70;99.90
3300;DHT22;1662;49.310;8.134;2023-01-08T06:00:33;8.70;99.90
3300;DHT22;1662;49.310;8.134;2023-01-08T06:02:58;8.60;99.90
3300;DHT22;1662;49.310;8.134;2023-01-08T06:05:24;8.60;99.90
3300;DHT22;1662;49.310;8.134;2023-01-08T06:07:50;8.60;99.90
3300;DHT22;1662;49.310;8.134;2023-01-08T06:10:16;8.50;99.90
3300;DHT22;1662;49.310;8.134;2023-01-08T06:13:34;8.40;99.90
3300;DHT22;1662;49.310;8.134;2023-01-08T06:16:00;8.40;99.90
3300;DHT22;1662;49.310;8.134;2023-01-08T06:18:29;8.30;99.90
3300;DHT22;1662;49.310;8.134;2023-01-08T06:20:54;8.30;99.90
3300;DHT22;1662;49.310;8.134;2023-01-08T06:23:20;8.30;99.90
3300;DHT22;1662;49.310;8.134;2023-01-08T06:25:58;8.20;99.90
3300;DHT22;1662;49.310;8.134;2023-01-08T06:28:24;8.20;99.90
3300;DHT22;1662;49.310;8.134;2023-01-08T06:32:46;8.20;99.90
3300;DHT22;1662;49.310;8.134;2023-01-08T06:35:12;8.10;99.90
3300;DHT22;1662;49.310;8.134;2023-01-08T06:37:38;8.20;99.90
3300;DHT22;1662;49.310;8.134;2023-01-08T06:40:03;8.10;99.90
3300;DHT22;1662;49.310;8.134;2023-01-08T06:42:29;8.10;99.90
3300;DHT22;1662;49.310;8.134;2023-01-08T06:44:55;8.10;99.90
3300;DHT22;1662;49.310;8.134;2023-01-08T06:50:11;8.20;99.90
3300;DHT22;1662;49.310;8.134;2023-01-08T06:52:37;8.00;99.90
3300;DHT22;1662;49.310;8.134;2023-01-08T06:55:03;8.00;99.90
3300;DHT22;1662;49.310;8.134;2023-01-08T06:57:30;8.10;99.90
3300;DHT22;1662;49.310;8.134;2023-01-08T06:59:58;8.00;99.90
3300;DHT22;1662;49.310;8.134;2023-01-08T07:02:29;8.00;99.90
3300;DHT22;1662;49.310;8.134;2023-01-08T07:04:54;8.30;99.90
3300;DHT22;1662;49.310;8.134;2023-01-08T07:09:24;8.50;99.90
3300;DHT22;1662;49.310;8.134;2023-01-08T07:11:49;8.40;99.90
3300;DHT22;1662;49.310;8.134;2023-01-08T07:14:15;8.30;99.90
3300;DHT22;1662;49.310;8.134;2023-01-08T07:16:40;8.30;99.90
3300;DHT22;1662;49.310;8.134;2023-01-08T07:19:06;8.30;99.90
3300;DHT22;1662;49.310;8.134;2023-01-08T07:21:32;8.30;99.90
3300;DHT22;1662;49.310;8.134;2023-01-08T07:26:50;8.30;99.90
3300;DHT22;1662;49.310;8.134;2023-01-08T07:29:16;8.30;99.90
3300;DHT22;1662;49.310;8.134;2023-01-08T07:31:42;8.30;99.90
3300;DHT22;1662;49.310;8.134;2023-01-08T07:34:08;8.20;99.90
3300;DHT22;1662;49.310;8.134;2023-01-08T07:36:33;8.20;99.90
3300;DHT22;1662;49.310;8.134;2023-01-08T07:38:59;8.20;99.90
3300;DHT22;1662;49.310;8.134;2023-01-08T07:41:25;8.20;99.90
3300;DHT22;1662;49.310;8.134;2023-01-08T07:43:51;8.30;99.90
3300;DHT22;1662;49.310;8.134;2023-01-08T07:47:19;8.20;99.90
3300;DHT22;1662;49.310;8.134;2023-01-08T07:49:44;8.20;99.90
3300;DHT22;1662;49.310;8.134;2023-01-08T07:52:10;8.10;99.90
3300;DHT22;1662;49.310;8.134;2023-01-08T07:54:35;8.10;99.90
3300;DHT22;1662;49.310;8.134;2023-01-08T07:57:01;8.10;99.90
3300;DHT22;1662;49.310;8.134;2023-01-08T07:59:26;8.20;99.90
3300;DHT22;1662;49.310;8.134;2023-01-08T08:01:52;8.20;99.90
3300;DHT22;1662;49.310;8.134;2023-01-08T08:05:00;8.10;99.90
3300;DHT22;1662;49.310;8.134;2023-01-08T08:07:25;8.20;99.90
3300;DHT22;1662;49.310;8.134;2023-01-08T08:09:51;8.20;99.90
3300;DHT22;1662;49.310;8.134;2023-01-08T08:12:16;8.10;99.90
3300;DHT22;1662;49.310;8.134;2023-01-08T08:14:42;8.10;99.90
3300;DHT22;1662;49.310;8.134;2023-01-08T08:17:10;8.10;99.90
3300;DHT22;1662;49.310;8.134;2023-01-08T08:19:35;8.10;99.90
3300;DHT22;1662;49.310;8.134;2023-01-08T08:23:11;8.10;99.90
3300;DHT22;1662;49.310;8.134;2023-01-08T08:25:41;8.10;99.90
3300;DHT22;1662;49.310;8.134;2023-01-08T08:28:09;8.10;99.90
3300;DHT22;1662;49.310;8.134;2023-01-08T08:30:35;8.10;99.90
3300;DHT22;1662;49.310;8.134;2023-01-08T08:33:02;8.10;99.90
3300;DHT22;1662;49.310;8.134;2023-01-08T08:35:29;8.10;99.90
3300;DHT22;1662;49.310;8.134;2023-01-08T08:40:07;8.10;99.90
3300;DHT22;1662;49.310;8.134;2023-01-08T08:42:35;8.20;99.90
3300;DHT22;1662;49.310;8.134;2023-01-08T08:45:01;8.20;99.90
3300;DHT22;1662;49.310;8.134;2023-01-08T08:47:26;8.20;99.90
3300;DHT22;1662;49.310;8.134;2023-01-08T08:49:55;8.20;99.90
3300;DHT22;1662;49.310;8.134;2023-01-08T08:52:21;8.20;99.90
3300;DHT22;1662;49.310;8.134;2023-01-08T08:54:46;8.20;99.90
3300;DHT22;1662;49.310;8.134;2023-01-08T08:59:05;8.20;99.90
3300;DHT22;1662;49.310;8.134;2023-01-08T09:01:30;8.20;99.90
3300;DHT22;1662;49.310;8.134;2023-01-08T09:03:56;8.20;99.90
3300;DHT22;1662;49.310;8.134;2023-01-08T09:06:22;8.20;99.90
3300;DHT22;1662;49.310;8.134;2023-01-08T09:08:54;8.20;99.90
3300;DHT22;1662;49.310;8.134;2023-01-08T09:11:20;8.20;99.90
3300;DHT22;1662;49.310;8.134;2023-01-08T09:16:03;8.30;99.90
3300;DHT22;1662;49.310;8.134;2023-01-08T09:18:29;8.30;99.90
3300;DHT22;1662;49.310;8.134;2023-01-08T09:20:55;8.30;99.90
3300;DHT22;1662;49.310;8.134;2023-01-08T09:23:23;8.30;99.90
3300;DHT22;1662;49.310;8.134;2023-01-08T09:26:00;8.30;99.90
3300;DHT22;1662;49.310;8.134;2023-01-08T09:28:26;8.30;99.90
3300;DHT22;1662;49.310;8.134;2023-01-08T09:33:30;8.30;99.90
3300;DHT22;1662;49.310;8.134;2023-01-08T09:35:58;8.30;99.90
3300;DHT22;1662;49.310;8.134;2023-01-08T09:38:24;8.40;99.90
3300;DHT22;1662;49.310;8.134;2023-01-08T09:40:58;8.40;99.90
3300;DHT22;1662;49.310;8.134;2023-01-08T09:43:30;8.40;99.90
3300;DHT22;1662;49.310;8.134;2023-01-08T09:45:59;8.40;99.90
3300;DHT22;1662;49.310;8.134;2023-01-08T09:51:14;8.40;99.90
3300;DHT22;1662;49.310;8.134;2023-01-08T09:53:41;8.40;99.90
3300;DHT22;1662;49.310;8.134;2023-01-08T09:56:18;8.40;99.90
3300;DHT22;1662;49.310;8.134;2023-01-08T10:01:13;8.40;99.90
3300;DHT22;1662;49.310;8.134;2023-01-08T10:03:43;8.40;99.90
3300;DHT22;1662;49.310;8.134;2023-01-08T10:08:37;8.40;99.90
3300;DHT22;1662;49.310;8.134;2023-01-08T10:11:04;8.40;99.90
3300;DHT22;1662;49.310;8.134;2023-01-08T10:13:31;8.50;99.90
3300;DHT22;1662;49.310;8.134;2023-01-08T10:15:57;8.50;99.90
3300;DHT22;1662;49.310;8.134;2023-01-08T10:18:25;8.50;99.90
3300;DHT22;1662;49.310;8.134;2023-01-08T10:20:54;8.50;99.90
3300;DHT22;1662;49.310;8.134;2023-01-08T10:26:06;8.50;99.90
3300;DHT22;1662;49.310;8.134;2023-01-08T10:28:35;8.60;99.90
3300;DHT22;1662;49.310;8.134;2023-01-08T10:31:13;8.60;99.90
3300;DHT22;1662;49.310;8.134;2023-01-08T10:33:42;8.60;99.90
3300;DHT22;1662;49.310;8.134;2023-01-08T10:36:13;8.60;99.90
3300;DHT22;1662;49.310;8.134;2023-01-08T10:38:59;8.70;99.90
3300;DHT22;1662;49.310;8.134;2023-01-08T10:43:50;8.70;99.90
3300;DHT22;1662;49.310;8.134;2023-01-08T10:46:24;8.80;99.90
3300;DHT22;1662;49.310;8.134;2023-01-08T10:48:57;8.80;99.90
3300;DHT22;1662;49.310;8.134;2023-01-08T10:51:27;8.80;99.90
3300;DHT22;1662;49.310;8.134;2023-01-08T10:53:54;8.90;99.90
3300;DHT22;1662;49.310;8.134;2023-01-08T10:56:38;8.80;99.90
3300;DHT22;1662;49.310;8.134;2023-01-08T11:01:14;8.90;99.90
3300;DHT22;1662;49.310;8.134;2023-01-08T11:03:40;9.10;99.90
3300;DHT22;1662;49.310;8.134;2023-01-08T11:06:17;9.10;99.90
3300;DHT22;1662;49.310;8.134;2023-01-08T11:09:02;9.10;99.90
3300;DHT22;1662;49.310;8.134;2023-01-08T11:11:34;9.10;99.90
3300;DHT22;1662;49.310;8.134;2023-01-08T11:14:04;9.20;99.90
3300;DHT22;1662;49.310;8.134;2023-01-08T11:19:28;9.30;99.90
3300;DHT22;1662;49.310;8.134;2023-01-08T11:21:58;9.60;99.90
3300;DHT22;1662;49.310;8.134;2023-01-08T11:24:25;9.60;99.90
3300;DHT22;1662;49.310;8.134;2023-01-08T11:29:59;9.70;99.90
3300;DHT22;1662;49.310;8.134;2023-01-08T11:32:52;9.80;99.90
3300;DHT22;1662;49.310;8.134;2023-01-08T11:37:23;10.00;99.90
3300;DHT22;1662;49.310;8.134;2023-01-08T11:39:53;10.10;99.90
3300;DHT22;1662;49.310;8.134;2023-01-08T11:56:51;10.00;99.90
3300;DHT22;1662;49.310;8.134;2023-01-08T11:59:35;10.00;99.90
3300;DHT22;1662;49.310;8.134;2023-01-08T12:07:16;9.80;99.90
3300;DHT22;1662;49.310;8.134;2023-01-08T12:20:31;9.90;99.90
3300;DHT22;1662;49.310;8.134;2023-01-08T12:23:14;9.80;99.90
3300;DHT22;1662;49.310;8.134;2023-01-08T12:25:54;9.80;99.90
3300;DHT22;1662;49.310;8.134;2023-01-08T12:32:57;9.80;99.90
3300;DHT22;1662;49.310;8.134;2023-01-08T12:35:36;10.00;99.90
3300;DHT22;1662;49.310;8.134;2023-01-08T12:38:23;10.10;99.90
3300;DHT22;1662;49.310;8.134;2023-01-08T12:41:03;10.10;99.90
3300;DHT22;1662;49.310;8.134;2023-01-08T12:43:54;10.10;99.90
3300;DHT22;1662;49.310;8.134;2023-01-08T12:46:21;10.10;99.90
3300;DHT22;1662;49.310;8.134;2023-01-08T12:56:57;10.00;99.90
3300;DHT22;1662;49.310;8.134;2023-01-08T13:07:31;10.10;99.90
3300;DHT22;1662;49.310;8.134;2023-01-08T13:10:03;10.00;99.90
3300;DHT22;1662;49.310;8.134;2023-01-08T13:12:36;10.10;99.90
3300;DHT22;1662;49.310;8.134;2023-01-08T13:15:03;10.10;99.90
3300;DHT22;1662;49.310;8.134;2023-01-08T13:17:29;10.20;99.90
3300;DHT22;1662;49.310;8.134;2023-01-08T13:20:03;10.10;99.90
3300;DHT22;1662;49.310;8.134;2023-01-08T13:22:31;10.10;99.90
3300;DHT22;1662;49.310;8.134;2023-01-08T13:29:44;10.20;99.90
3300;DHT22;1662;49.310;8.134;2023-01-08T13:35:46;10.20;99.90
3300;DHT22;1662;49.310;8.134;2023-01-08T13:45:19;10.00;99.90
3300;DHT22;1662;49.310;8.134;2023-01-08T13:47:45;10.00;99.90
3300;DHT22;1662;49.310;8.134;2023-01-08T13:50:18;10.00;99.90
3300;DHT22;1662;49.310;8.134;2023-01-08T13:52:47;9.90;99.90
3300;DHT22;1662;49.310;8.134;2023-01-08T13:55:22;9.90;99.90
3300;DHT22;1662;49.310;8.134;2023-01-08T13:57:55;9.90;99.90
3300;DHT22;1662;49.310;8.134;2023-01-08T14:00:29;9.90;99.90
3300;DHT22;1662;49.310;8.134;2023-01-08T14:02:55;9.90;99.90
3300;DHT22;1662;49.310;8.134;2023-01-08T14:07:45;10.00;99.90
3300;DHT22;1662;49.310;8.134;2023-01-08T14:10:14;10.10;99.90
3300;DHT22;1662;49.310;8.134;2023-01-08T14:12:40;10.10;99.90
3300;DHT22;1662;49.310;8.134;2023-01-08T14:15:24;10.00;99.90
3300;DHT22;1662;49.310;8.134;2023-01-08T14:17:51;10.30;99.90
3300;DHT22;1662;49.310;8.134;2023-01-08T14:20:33;10.40;99.90
3300;DHT22;1662;49.310;8.134;2023-01-08T14:24:26;10.40;99.90
3300;DHT22;1662;49.310;8.134;2023-01-08T14:26:54;10.40;99.90
3300;DHT22;1662;49.310;8.134;2023-01-08T14:29:23;10.40;99.90
3300;DHT22;1662;49.310;8.134;2023-01-08T14:31:54;10.40;99.90
3300;DHT22;1662;49.310;8.134;2023-01-08T14:34:28;10.30;99.90
3300;DHT22;1662;49.310;8.134;2023-01-08T14:36:55;10.30;99.90
3300;DHT22;1662;49.310;8.134;2023-01-08T14:39:22;10.20;99.90
3300;DHT22;1662;49.310;8.134;2023-01-08T14:42:54;10.20;99.90
3300;DHT22;1662;49.310;8.134;2023-01-08T14:45:23;10.20;99.90
3300;DHT22;1662;49.310;8.134;2023-01-08T14:47:53;10.20;99.90
3300;DHT22;1662;49.310;8.134;2023-01-08T14:50:29;10.20;99.90
3300;DHT22;1662;49.310;8.134;2023-01-08T14:53:05;10.10;99.90
3300;DHT22;1662;49.310;8.134;2023-01-08T14:55:31;10.10;99.90
3300;DHT22;1662;49.310;8.134;2023-01-08T14:58:01;10.10;99.90
3300;DHT22;1662;49.310;8.134;2023-01-08T15:02:51;10.10;99.90
3300;DHT22;1662;49.310;8.134;2023-01-08T15:05:31;9.90;99.90
3300;DHT22;1662;49.310;8.134;2023-01-08T15:08:00;9.90;99.90
3300;DHT22;1662;49.310;8.134;2023-01-08T15:13:00;9.80;99.90
3300;DHT22;1662;49.310;8.134;2023-01-08T15:15:28;9.80;99.90
3300;DHT22;1662;49.310;8.134;2023-01-08T15:17:57;9.80;99.90
3300;DHT22;1662;49.310;8.134;2023-01-08T15:22:02;9.70;99.90
3300;DHT22;1662;49.310;8.134;2023-01-08T15:24:35;9.70;99.90
3300;DHT22;1662;49.310;8.134;2023-01-08T15:27:04;9.60;99.90
3300;DHT22;1662;49.310;8.134;2023-01-08T15:29:45;9.60;99.90
3300;DHT22;1662;49.310;8.134;2023-01-08T15:34:43;9.50;99.90
3300;DHT22;1662;49.310;8.134;2023-01-08T15:39:42;9.50;99.90
3300;DHT22;1662;49.310;8.134;2023-01-08T15:45:02;9.40;99.90
3300;DHT22;1662;49.310;8.134;2023-01-08T15:47:30;9.40;99.90
3300;DHT22;1662;49.310;8.134;2023-01-08T15:49:56;9.30;99.90
3300;DHT22;1662;49.310;8.134;2023-01-08T15:52:24;9.30;99.90
3300;DHT22;1662;49.310;8.134;2023-01-08T15:54:55;9.30;99.90
3300;DHT22;1662;49.310;8.134;2023-01-08T15:59:55;9.30;99.90
3300;DHT22;1662;49.310;8.134;2023-01-08T16:02:21;9.30;99.90
3300;DHT22;1662;49.310;8.134;2023-01-08T16:04:56;9.30;99.90
3300;DHT22;1662;49.310;8.134;2023-01-08T16:07:22;9.20;99.90
3300;DHT22;1662;49.310;8.134;2023-01-08T16:09:48;9.20;99.90
3300;DHT22;1662;49.310;8.134;2023-01-08T16:12:16;9.20;99.90
3300;DHT22;1662;49.310;8.134;2023-01-08T16:14:41;9.20;99.90
3300;DHT22;1662;49.310;8.134;2023-01-08T16:19:08;9.20;99.90
3300;DHT22;1662;49.310;8.134;2023-01-08T16:21:34;9.20;99.90
3300;DHT22;1662;49.310;8.134;2023-01-08T16:24:00;9.10;99.90
3300;DHT22;1662;49.310;8.134;2023-01-08T16:26:25;9.10;99.90
3300;DHT22;1662;49.310;8.134;2023-01-08T16:28:51;9.10;99.90
3300;DHT22;1662;49.310;8.134;2023-01-08T16:31:16;9.10;99.90
3300;DHT22;1662;49.310;8.134;2023-01-08T16:33:42;9.10;99.90
3300;DHT22;1662;49.310;8.134;2023-01-08T16:37:46;9.00;99.90
3300;DHT22;1662;49.310;8.134;2023-01-08T16:40:15;9.10;99.90
3300;DHT22;1662;49.310;8.134;2023-01-08T16:42:40;9.10;99.90
3300;DHT22;1662;49.310;8.134;2023-01-08T16:45:07;9.00;99.90
3300;DHT22;1662;49.310;8.134;2023-01-08T16:47:37;9.00;99.90
3300;DHT22;1662;49.310;8.134;2023-01-08T16:50:03;9.00;99.90
3300;DHT22;1662;49.310;8.134;2023-01-08T16:52:32;8.90;99.90
3300;DHT22;1662;49.310;8.134;2023-01-08T16:56:43;8.90;99.90
3300;DHT22;1662;49.310;8.134;2023-01-08T16:59:09;8.90;99.90
3300;DHT22;1662;49.310;8.134;2023-01-08T17:01:35;8.90;99.90
3300;DHT22;1662;49.310;8.134;2023-01-08T17:04:03;8.90;99.90
3300;DHT22;1662;49.310;8.134;2023-01-08T17:06:29;8.90;99.90
3300;DHT22;1662;49.310;8.134;2023-01-08T17:08:58;8.90;99.90
3300;DHT22;1662;49.310;8.134;2023-01-08T17:11:28;8.90;99.90
3300;DHT22;1662;49.310;8.134;2023-01-08T17:15:11;8.90;99.90
3300;DHT22;1662;49.310;8.134;2023-01-08T17:17:37;8.90;99.90
3300;DHT22;1662;49.310;8.134;2023-01-08T17:20:06;8.90;99.90
3300;DHT22;1662;49.310;8.134;2023-01-08T17:22:32;8.90;99.90
3300;DHT22;1662;49.310;8.134;2023-01-08T17:25:00;8.90;99.90
3300;DHT22;1662;49.310;8.134;2023-01-08T17:27:25;8.90;99.90
3300;DHT22;1662;49.310;8.134;2023-01-08T17:29:51;8.90;99.90
3300;DHT22;1662;49.310;8.134;2023-01-08T17:32:50;8.90;99.90
3300;DHT22;1662;49.310;8.134;2023-01-08T17:35:16;8.80;99.90
3300;DHT22;1662;49.310;8.134;2023-01-08T17:37:41;8.80;99.90
3300;DHT22;1662;49.310;8.134;2023-01-08T17:40:08;8.80;99.90
3300;DHT22;1662;49.310;8.134;2023-01-08T17:42:33;8.70;99.90
3300;DHT22;1662;49.310;8.134;2023-01-08T17:45:01;8.70;99.90
3300;DHT22;1662;49.310;8.134;2023-01-08T17:47:30;8.70;99.90
3300;DHT22;1662;49.310;8.134;2023-01-08T17:52:31;8.70;99.90
3300;DHT22;1662;49.310;8.134;2023-01-08T17:54:57;8.60;99.90
3300;DHT22;1662;49.310;8.134;2023-01-08T17:57:23;8.50;99.90
3300;DHT22;1662;49.310;8.134;2023-01-08T17:59:49;8.50;99.90
3300;DHT22;1662;49.310;8.134;2023-01-08T18:02:17;8.50;99.90
3300;DHT22;1662;49.310;8.134;2023-01-08T18:04:43;8.50;99.90
3300;DHT22;1662;49.310;8.134;2023-01-08T18:07:09;8.50;99.90
3300;DHT22;1662;49.310;8.134;2023-01-08T18:10:27;8.50;99.90
3300;DHT22;1662;49.310;8.134;2023-01-08T18:12:53;8.40;99.90
3300;DHT22;1662;49.310;8.134;2023-01-08T18:15:18;8.40;99.90
3300;DHT22;1662;49.310;8.134;2023-01-08T18:17:46;8.40;99.90
3300;DHT22;1662;49.310;8.134;2023-01-08T18:20:14;8.40;99.90
3300;DHT22;1662;49.310;8.134;2023-01-08T18:22:42;8.40;99.90
3300;DHT22;1662;49.310;8.134;2023-01-08T18:25:10;8.40;99.90
3300;DHT22;1662;49.310;8.134;2023-01-08T18:29:15;8.30;99.90
3300;DHT22;1662;49.310;8.134;2023-01-08T18:31:41;8.40;99.90
3300;DHT22;1662;49.310;8.134;2023-01-08T18:34:07;8.40;99.90
3300;DHT22;1662;49.310;8.134;2023-01-08T18:36:34;8.40;99.90
3300;DHT22;1662;49.310;8.134;2023-01-08T18:39:01;8.40;99.90
3300;DHT22;1662;49.310;8.134;2023-01-08T18:41:28;8.40;99.90
3300;DHT22;1662;49.310;8.134;2023-01-08T18:44:12;8.40;99.90
3300;DHT22;1662;49.310;8.134;2023-01-08T18:47:12;8.40;99.90
3300;DHT22;1662;49.310;8.134;2023-01-08T18:49:40;8.40;99.90
3300;DHT22;1662;49.310;8.134;2023-01-08T18:52:08;8.40;99.90
3300;DHT22;1662;49.310;8.134;2023-01-08T18:54:35;8.40;99.90
3300;DHT22;1662;49.310;8.134;2023-01-08T18:57:00;8.40;99.90
3300;DHT22;1662;49.310;8.134;2023-01-08T18:59:26;8.40;99.90
3300;DHT22;1662;49.310;8.134;2023-01-08T19:01:52;8.40;99.90
3300;DHT22;1662;49.310;8.134;2023-01-08T19:06:56;8.50;99.90
3300;DHT22;1662;49.310;8.134;2023-01-08T19:09:22;8.50;99.90
3300;DHT22;1662;49.310;8.134;2023-01-08T19:11:48;8.50;99.90
3300;DHT22;1662;49.310;8.134;2023-01-08T19:14:14;8.40;99.90
3300;DHT22;1662;49.310;8.134;2023-01-08T19:16:44;8.40;99.90
3300;DHT22;1662;49.310;8.134;2023-01-08T19:19:15;8.40;99.90
3300;DHT22;1662;49.310;8.134;2023-01-08T19:24:18;8.40;99.90
3300;DHT22;1662;49.310;8.134;2023-01-08T19:26:44;8.40;99.90
3300;DHT22;1662;49.310;8.134;2023-01-08T19:29:10;8.40;99.90
3300;DHT22;1662;49.310;8.134;2023-01-08T19:31:36;8.50;99.90
3300;DHT22;1662;49.310;8.134;2023-01-08T19:34:02;8.50;99.90
3300;DHT22;1662;49.310;8.134;2023-01-08T19:36:28;8.50;99.90